sensor_id;sensor_type;location;lat;lon;timestamp;P1;durP1;ratioP1;P2;durP2;ratioP2
86110;SDS011;76766;52.874;11.218;2024-02-26T00:01:43;2.85;;;1.00;;
86110;SDS011;76766;52.874;11.218;2024-02-26T00:04:10;2.15;;;0.90;;
86110;SDS011;76766;52.874;11.218;2024-02-26T00:06:37;1.10;;;1.00;;
86110;SDS011;76766;52.874;11.218;2024-02-26T00:09:06;4.75;;;1.30;;
86110;SDS011;76766;52.874;11.218;2024-02-26T00:11:34;1.67;;;0.90;;
86110;SDS011;76766;52.874;11.218;2024-02-26T00:14:01;3.45;;;0.70;;
86110;SDS011;76766;52.874;11.218;2024-02-26T00:16:27;2.05;;;1.30;;
86110;SDS011;76766;52.874;11.218;2024-02-26T00:18:53;2.13;;;0.73;;
86110;SDS011;76766;52.874;11.218;2024-02-26T00:21:19;2.78;;;0.90;;
86110;SDS011;76766;52.874;11.218;2024-02-26T00:23:45;5.20;;;1.13;;
86110;SDS011;76766;52.874;11.218;2024-02-26T00:26:11;1.35;;;1.08;;
86110;SDS011;76766;52.874;11.218;2024-02-26T00:28:37;2.72;;;1.20;;
86110;SDS011;76766;52.874;11.218;2024-02-26T00:31:03;2.13;;;0.95;;
86110;SDS011;76766;52.874;11.218;2024-02-26T00:33:29;1.70;;;0.80;;
86110;SDS011;76766;52.874;11.218;2024-02-26T00:35:55;1.73;;;1.10;;
86110;SDS011;76766;52.874;11.218;2024-02-26T00:38:21;1.50;;;1.00;;
86110;SDS011;76766;52.874;11.218;2024-02-26T00:40:47;3.30;;;0.82;;
86110;SDS011;76766;52.874;11.218;2024-02-26T00:43:13;2.15;;;0.93;;
86110;SDS011;76766;52.874;11.218;2024-02-26T00:45:39;2.22;;;0.80;;
86110;SDS011;76766;52.874;11.218;2024-02-26T00:48:05;1.35;;;0.80;;
86110;SDS011;76766;52.874;11.218;2024-02-26T00:50:31;0.95;;;0.80;;
86110;SDS011;76766;52.874;11.218;2024-02-26T00:52:57;0.65;;;0.65;;
86110;SDS011;76766;52.874;11.218;2024-02-26T00:55:23;1.00;;;0.70;;
86110;SDS011;76766;52.874;11.218;2024-02-26T00:57:49;1.52;;;1.35;;
86110;SDS011;76766;52.874;11.218;2024-02-26T01:00:15;1.25;;;1.13;;
86110;SDS011;76766;52.874;11.218;2024-02-26T01:02:42;1.67;;;0.93;;
86110;SDS011;76766;52.874;11.218;2024-02-26T01:05:08;0.95;;;0.90;;
86110;SDS011;76766;52.874;11.218;2024-02-26T01:07:37;1.08;;;0.93;;
86110;SDS011;76766;52.874;11.218;2024-02-26T01:10:05;0.63;;;0.63;;
86110;SDS011;76766;52.874;11.218;2024-02-26T01:12:34;1.98;;;0.73;;
86110;SDS011;76766;52.874;11.218;2024-02-26T01:15:03;0.70;;;0.70;;
86110;SDS011;76766;52.874;11.218;2024-02-26T01:17:29;1.63;;;0.90;;
86110;SDS011;76766;52.874;11.218;2024-02-26T01:19:56;3.05;;;0.80;;
86110;SDS011;76766;52.874;11.218;2024-02-26T01:22:22;1.77;;;1.10;;
86110;SDS011;76766;52.874;11.218;2024-02-26T01:24:48;1.30;;;0.73;;
86110;SDS011;76766;52.874;11.218;2024-02-26T01:27:14;0.80;;;0.80;;
86110;SDS011;76766;52.874;11.218;2024-02-26T01:29:41;0.70;;;0.70;;
86110;SDS011;76766;52.874;11.218;2024-02-26T01:32:07;0.77;;;0.60;;
86110;SDS011;76766;52.874;11.218;2024-02-26T01:34:33;0.77;;;0.73;;
86110;SDS011;76766;52.874;11.218;2024-02-26T01:37:00;1.30;;;0.77;;
86110;SDS011;76766;52.874;11.218;2024-02-26T01:39:26;1.33;;;0.88;;
86110;SDS011;76766;52.874;11.218;2024-02-26T01:41:54;0.93;;;0.65;;
86110;SDS011;76766;52.874;11.218;2024-02-26T01:44:21;0.77;;;0.75;;
86110;SDS011;76766;52.874;11.218;2024-02-26T01:46:47;0.68;;;0.60;;
86110;SDS011;76766;52.874;11.218;2024-02-26T01:49:13;1.35;;;0.73;;
86110;SDS011;76766;52.874;11.218;2024-02-26T01:51:40;1.33;;;1.00;;
86110;SDS011;76766;52.874;11.218;2024-02-26T01:54:08;1.08;;;0.80;;
86110;SDS011;76766;52.874;11.218;2024-02-26T01:56:35;1.45;;;0.80;;
86110;SDS011;76766;52.874;11.218;2024-02-26T01:59:02;0.73;;;0.73;;
86110;SDS011;76766;52.874;11.218;2024-02-26T02:01:29;1.13;;;0.70;;
86110;SDS011;76766;52.874;11.218;2024-02-26T02:03:57;0.80;;;0.80;;
86110;SDS011;76766;52.874;11.218;2024-02-26T02:06:24;0.68;;;0.68;;
86110;SDS011;76766;52.874;11.218;2024-02-26T02:08:50;2.67;;;0.90;;
86110;SDS011;76766;52.874;11.218;2024-02-26T02:11:16;1.25;;;0.68;;
86110;SDS011;76766;52.874;11.218;2024-02-26T02:13:42;0.90;;;0.90;;
86110;SDS011;76766;52.874;11.218;2024-02-26T02:16:08;1.17;;;0.88;;
86110;SDS011;76766;52.874;11.218;2024-02-26T02:18:34;0.93;;;0.60;;
86110;SDS011;76766;52.874;11.218;2024-02-26T02:21:01;0.85;;;0.85;;
86110;SDS011;76766;52.874;11.218;2024-02-26T02:23:27;0.70;;;0.70;;
86110;SDS011;76766;52.874;11.218;2024-02-26T02:25:53;0.80;;;0.60;;
86110;SDS011;76766;52.874;11.218;2024-02-26T02:28:23;0.80;;;0.75;;
86110;SDS011;76766;52.874;11.218;2024-02-26T02:30:51;0.70;;;0.70;;
86110;SDS011;76766;52.874;11.218;2024-02-26T02:33:17;0.85;;;0.65;;
86110;SDS011;76766;52.874;11.218;2024-02-26T02:35:43;0.68;;;0.63;;
86110;SDS011;76766;52.874;11.218;2024-02-26T02:38:09;0.95;;;0.75;;
86110;SDS011;76766;52.874;11.218;2024-02-26T02:40:35;0.85;;;0.80;;
86110;SDS011;76766;52.874;11.218;2024-02-26T02:43:02;0.60;;;0.60;;
86110;SDS011;76766;52.874;11.218;2024-02-26T02:45:28;0.50;;;0.50;;
86110;SDS011;76766;52.874;11.218;2024-02-26T02:47:54;0.90;;;0.77;;
86110;SDS011;76766;52.874;11.218;2024-02-26T02:50:20;0.80;;;0.80;;
86110;SDS011;76766;52.874;11.218;2024-02-26T02:52:46;0.70;;;0.70;;
86110;SDS011;76766;52.874;11.218;2024-02-26T02:55:12;0.57;;;0.57;;
86110;SDS011;76766;52.874;11.218;2024-02-26T02:57:38;0.70;;;0.70;;
86110;SDS011;76766;52.874;11.218;2024-02-26T03:00:09;1.10;;;1.00;;
86110;SDS011;76766;52.874;11.218;2024-02-26T03:02:35;0.77;;;0.77;;
86110;SDS011;76766;52.874;11.218;2024-02-26T03:05:05;0.82;;;0.80;;
86110;SDS011;76766;52.874;11.218;2024-02-26T03:07:31;0.77;;;0.77;;
86110;SDS011;76766;52.874;11.218;2024-02-26T03:09:57;0.60;;;0.60;;
86110;SDS011;76766;52.874;11.218;2024-02-26T03:12:23;0.65;;;0.55;;
86110;SDS011;76766;52.874;11.218;2024-02-26T03:14:49;0.65;;;0.65;;
86110;SDS011;76766;52.874;11.218;2024-02-26T03:17:15;1.20;;;0.70;;
86110;SDS011;76766;52.874;11.218;2024-02-26T03:19:41;1.23;;;0.60;;
86110;SDS011;76766;52.874;11.218;2024-02-26T03:22:09;0.50;;;0.50;;
86110;SDS011;76766;52.874;11.218;2024-02-26T03:24:35;1.08;;;0.40;;
86110;SDS011;76766;52.874;11.218;2024-02-26T03:27:01;0.63;;;0.63;;
86110;SDS011;76766;52.874;11.218;2024-02-26T03:29:26;0.75;;;0.75;;
86110;SDS011;76766;52.874;11.218;2024-02-26T03:31:52;0.70;;;0.70;;
86110;SDS011;76766;52.874;11.218;2024-02-26T03:34:18;0.70;;;0.70;;
86110;SDS011;76766;52.874;11.218;2024-02-26T03:36:45;0.60;;;0.60;;
86110;SDS011;76766;52.874;11.218;2024-02-26T03:39:11;0.60;;;0.60;;
86110;SDS011;76766;52.874;11.218;2024-02-26T03:41:37;0.50;;;0.50;;
86110;SDS011;76766;52.874;11.218;2024-02-26T03:44:03;1.52;;;0.63;;
86110;SDS011;76766;52.874;11.218;2024-02-26T03:46:29;0.65;;;0.60;;
86110;SDS011;76766;52.874;11.218;2024-02-26T03:48:55;0.80;;;0.80;;
86110;SDS011;76766;52.874;11.218;2024-02-26T03:51:21;0.52;;;0.50;;
86110;SDS011;76766;52.874;11.218;2024-02-26T03:53:47;0.73;;;0.50;;
86110;SDS011;76766;52.874;11.218;2024-02-26T03:56:13;0.73;;;0.73;;
86110;SDS011;76766;52.874;11.218;2024-02-26T03:58:39;0.70;;;0.70;;
86110;SDS011;76766;52.874;11.218;2024-02-26T04:01:07;0.80;;;0.80;;
86110;SDS011;76766;52.874;11.218;2024-02-26T04:03:33;0.70;;;0.70;;
86110;SDS011;76766;52.874;11.218;2024-02-26T04:06:00;0.77;;;0.70;;
86110;SDS011;76766;52.874;11.218;2024-02-26T04:08:26;0.60;;;0.60;;
86110;SDS011;76766;52.874;11.218;2024-02-26T04:10:52;1.27;;;0.60;;
86110;SDS011;76766;52.874;11.218;2024-02-26T04:13:18;0.55;;;0.55;;
86110;SDS011;76766;52.874;11.218;2024-02-26T04:15:44;0.82;;;0.47;;
86110;SDS011;76766;52.874;11.218;2024-02-26T04:18:10;0.82;;;0.80;;
86110;SDS011;76766;52.874;11.218;2024-02-26T04:20:36;0.68;;;0.68;;
86110;SDS011;76766;52.874;11.218;2024-02-26T04:23:02;1.42;;;0.60;;
86110;SDS011;76766;52.874;11.218;2024-02-26T04:25:29;0.60;;;0.60;;
86110;SDS011;76766;52.874;11.218;2024-02-26T04:27:54;0.63;;;0.63;;
86110;SDS011;76766;52.874;11.218;2024-02-26T04:30:20;0.60;;;0.60;;
86110;SDS011;76766;52.874;11.218;2024-02-26T04:32:46;1.02;;;0.75;;
86110;SDS011;76766;52.874;11.218;2024-02-26T04:35:12;0.43;;;0.43;;
86110;SDS011;76766;52.874;11.218;2024-02-26T04:37:38;0.63;;;0.60;;
86110;SDS011;76766;52.874;11.218;2024-02-26T04:40:05;0.75;;;0.75;;
86110;SDS011;76766;52.874;11.218;2024-02-26T04:42:31;0.70;;;0.60;;
86110;SDS011;76766;52.874;11.218;2024-02-26T04:44:57;0.50;;;0.50;;
86110;SDS011;76766;52.874;11.218;2024-02-26T04:47:23;0.60;;;0.60;;
86110;SDS011;76766;52.874;11.218;2024-02-26T04:49:49;0.50;;;0.50;;
86110;SDS011;76766;52.874;11.218;2024-02-26T04:52:16;0.77;;;0.70;;
86110;SDS011;76766;52.874;11.218;2024-02-26T04:54:42;0.70;;;0.70;;
86110;SDS011;76766;52.874;11.218;2024-02-26T04:57:08;0.77;;;0.77;;
86110;SDS011;76766;52.874;11.218;2024-02-26T04:59:34;0.60;;;0.50;;
86110;SDS011;76766;52.874;11.218;2024-02-26T05:02:00;0.70;;;0.70;;
86110;SDS011;76766;52.874;11.218;2024-02-26T05:04:25;0.70;;;0.70;;
86110;SDS011;76766;52.874;11.218;2024-02-26T05:06:51;1.27;;;0.63;;
86110;SDS011;76766;52.874;11.218;2024-02-26T05:09:18;0.65;;;0.65;;
86110;SDS011;76766;52.874;11.218;2024-02-26T05:11:45;0.50;;;0.50;;
86110;SDS011;76766;52.874;11.218;2024-02-26T05:14:11;0.80;;;0.70;;
86110;SDS011;76766;52.874;11.218;2024-02-26T05:16:37;1.30;;;0.63;;
86110;SDS011;76766;52.874;11.218;2024-02-26T05:19:03;0.50;;;0.50;;
86110;SDS011;76766;52.874;11.218;2024-02-26T05:21:29;0.60;;;0.60;;
86110;SDS011;76766;52.874;11.218;2024-02-26T05:23:55;0.80;;;0.80;;
86110;SDS011;76766;52.874;11.218;2024-02-26T05:26:21;0.80;;;0.57;;
86110;SDS011;76766;52.874;11.218;2024-02-26T05:28:47;0.55;;;0.55;;
86110;SDS011;76766;52.874;11.218;2024-02-26T05:31:14;0.50;;;0.50;;
86110;SDS011;76766;52.874;11.218;2024-02-26T05:33:40;0.80;;;0.80;;
86110;SDS011;76766;52.874;11.218;2024-02-26T05:36:06;0.52;;;0.52;;
86110;SDS011;76766;52.874;11.218;2024-02-26T05:38:32;0.68;;;0.57;;
86110;SDS011;76766;52.874;11.218;2024-02-26T05:40:59;1.60;;;0.70;;
86110;SDS011;76766;52.874;11.218;2024-02-26T05:43:25;0.52;;;0.52;;
86110;SDS011;76766;52.874;11.218;2024-02-26T05:45:52;0.50;;;0.50;;
86110;SDS011;76766;52.874;11.218;2024-02-26T05:48:19;0.70;;;0.70;;
86110;SDS011;76766;52.874;11.218;2024-02-26T05:50:45;0.45;;;0.45;;
86110;SDS011;76766;52.874;11.218;2024-02-26T05:53:11;0.50;;;0.50;;
86110;SDS011;76766;52.874;11.218;2024-02-26T05:55:37;0.60;;;0.60;;
86110;SDS011;76766;52.874;11.218;2024-02-26T05:58:04;0.70;;;0.70;;
86110;SDS011;76766;52.874;11.218;2024-02-26T06:00:30;0.70;;;0.60;;
86110;SDS011;76766;52.874;11.218;2024-02-26T06:02:56;0.52;;;0.52;;
86110;SDS011;76766;52.874;11.218;2024-02-26T06:05:22;0.70;;;0.70;;
86110;SDS011;76766;52.874;11.218;2024-02-26T06:07:48;0.60;;;0.60;;
86110;SDS011;76766;52.874;11.218;2024-02-26T06:10:14;0.70;;;0.70;;
86110;SDS011;76766;52.874;11.218;2024-02-26T06:12:40;0.70;;;0.70;;
86110;SDS011;76766;52.874;11.218;2024-02-26T06:15:06;1.13;;;0.63;;
86110;SDS011;76766;52.874;11.218;2024-02-26T06:17:33;0.63;;;0.60;;
86110;SDS011;76766;52.874;11.218;2024-02-26T06:19:59;0.60;;;0.60;;
86110;SDS011;76766;52.874;11.218;2024-02-26T06:22:26;0.47;;;0.47;;
86110;SDS011;76766;52.874;11.218;2024-02-26T06:24:52;0.60;;;0.60;;
86110;SDS011;76766;52.874;11.218;2024-02-26T06:27:18;0.60;;;0.60;;
86110;SDS011;76766;52.874;11.218;2024-02-26T06:29:44;0.60;;;0.55;;
86110;SDS011;76766;52.874;11.218;2024-02-26T06:32:10;0.50;;;0.50;;
86110;SDS011;76766;52.874;11.218;2024-02-26T06:34:36;0.55;;;0.55;;
86110;SDS011;76766;52.874;11.218;2024-02-26T06:37:03;3.70;;;0.70;;
86110;SDS011;76766;52.874;11.218;2024-02-26T06:39:29;1.55;;;0.70;;
86110;SDS011;76766;52.874;11.218;2024-02-26T06:41:55;0.63;;;0.63;;
86110;SDS011;76766;52.874;11.218;2024-02-26T06:44:26;1.13;;;0.80;;
86110;SDS011;76766;52.874;11.218;2024-02-26T06:46:58;0.55;;;0.55;;
86110;SDS011;76766;52.874;11.218;2024-02-26T06:49:27;1.65;;;0.80;;
86110;SDS011;76766;52.874;11.218;2024-02-26T06:51:54;2.70;;;0.70;;
86110;SDS011;76766;52.874;11.218;2024-02-26T06:54:20;1.27;;;0.60;;
86110;SDS011;76766;52.874;11.218;2024-02-26T06:56:46;3.42;;;0.70;;
86110;SDS011;76766;52.874;11.218;2024-02-26T06:59:12;0.50;;;0.50;;
86110;SDS011;76766;52.874;11.218;2024-02-26T07:01:41;2.35;;;0.80;;
86110;SDS011;76766;52.874;11.218;2024-02-26T07:04:07;0.60;;;0.60;;
86110;SDS011;76766;52.874;11.218;2024-02-26T07:06:33;0.60;;;0.60;;
86110;SDS011;76766;52.874;11.218;2024-02-26T07:08:59;0.70;;;0.70;;
86110;SDS011;76766;52.874;11.218;2024-02-26T07:11:25;1.33;;;0.60;;
86110;SDS011;76766;52.874;11.218;2024-02-26T07:13:51;2.15;;;0.70;;
86110;SDS011;76766;52.874;11.218;2024-02-26T07:16:17;1.55;;;0.70;;
86110;SDS011;76766;52.874;11.218;2024-02-26T07:18:43;2.05;;;0.50;;
86110;SDS011;76766;52.874;11.218;2024-02-26T07:21:09;0.60;;;0.60;;
86110;SDS011;76766;52.874;11.218;2024-02-26T07:23:36;1.33;;;0.80;;
86110;SDS011;76766;52.874;11.218;2024-02-26T07:26:02;0.50;;;0.50;;
86110;SDS011;76766;52.874;11.218;2024-02-26T07:28:29;0.50;;;0.50;;
86110;SDS011;76766;52.874;11.218;2024-02-26T07:30:55;0.60;;;0.60;;
86110;SDS011;76766;52.874;11.218;2024-02-26T07:33:21;0.60;;;0.60;;
86110;SDS011;76766;52.874;11.218;2024-02-26T07:35:47;0.55;;;0.50;;
86110;SDS011;76766;52.874;11.218;2024-02-26T07:38:13;0.50;;;0.50;;
86110;SDS011;76766;52.874;11.218;2024-02-26T07:40:39;0.60;;;0.60;;
86110;SDS011;76766;52.874;11.218;2024-02-26T07:43:05;1.13;;;0.60;;
86110;SDS011;76766;52.874;11.218;2024-02-26T07:45:31;0.50;;;0.50;;
86110;SDS011;76766;52.874;11.218;2024-02-26T07:47:57;2.03;;;0.60;;
86110;SDS011;76766;52.874;11.218;2024-02-26T07:50:23;0.52;;;0.52;;
86110;SDS011;76766;52.874;11.218;2024-02-26T07:52:49;0.55;;;0.55;;
86110;SDS011;76766;52.874;11.218;2024-02-26T07:55:16;0.35;;;0.35;;
86110;SDS011;76766;52.874;11.218;2024-02-26T07:57:43;0.63;;;0.50;;
86110;SDS011;76766;52.874;11.218;2024-02-26T08:00:09;0.50;;;0.50;;
86110;SDS011;76766;52.874;11.218;2024-02-26T08:02:36;0.40;;;0.40;;
86110;SDS011;76766;52.874;11.218;2024-02-26T08:05:02;0.63;;;0.63;;
86110;SDS011;76766;52.874;11.218;2024-02-26T08:07:28;2.38;;;0.73;;
86110;SDS011;76766;52.874;11.218;2024-02-26T08:09:54;0.90;;;0.70;;
86110;SDS011;76766;52.874;11.218;2024-02-26T08:12:20;2.63;;;1.00;;
86110;SDS011;76766;52.874;11.218;2024-02-26T08:14:46;12.27;;;5.20;;
86110;SDS011;76766;52.874;11.218;2024-02-26T08:17:12;62.80;;;27.40;;
86110;SDS011;76766;52.874;11.218;2024-02-26T08:19:38;32.60;;;15.43;;
86110;SDS011;76766;52.874;11.218;2024-02-26T08:22:04;148.15;;;51.95;;
86110;SDS011;76766;52.874;11.218;2024-02-26T08:24:30;107.88;;;37.38;;
86110;SDS011;76766;52.874;11.218;2024-02-26T08:26:56;85.82;;;29.13;;
86110;SDS011;76766;52.874;11.218;2024-02-26T08:29:22;96.20;;;39.70;;
86110;SDS011;76766;52.874;11.218;2024-02-26T08:31:48;78.25;;;28.42;;
86110;SDS011;76766;52.874;11.218;2024-02-26T08:34:14;62.47;;;19.40;;
86110;SDS011;76766;52.874;11.218;2024-02-26T08:36:40;50.53;;;19.00;;
86110;SDS011;76766;52.874;11.218;2024-02-26T08:39:08;458.27;;;139.27;;
86110;SDS011;76766;52.874;11.218;2024-02-26T08:41:34;661.05;;;241.40;;
86110;SDS011;76766;52.874;11.218;2024-02-26T08:44:01;1001.97;;;386.05;;
86110;SDS011;76766;52.874;11.218;2024-02-26T08:46:27;1168.72;;;472.83;;
86110;SDS011;76766;52.874;11.218;2024-02-26T08:48:53;755.25;;;268.38;;
86110;SDS011;76766;52.874;11.218;2024-02-26T08:51:19;602.42;;;197.95;;
86110;SDS011;76766;52.874;11.218;2024-02-26T08:53:45;553.10;;;170.35;;
86110;SDS011;76766;52.874;11.218;2024-02-26T08:56:11;414.13;;;113.07;;
86110;SDS011;76766;52.874;11.218;2024-02-26T08:58:42;394.88;;;110.65;;
86110;SDS011;76766;52.874;11.218;2024-02-26T09:01:09;388.02;;;104.65;;
86110;SDS011;76766;52.874;11.218;2024-02-26T09:03:35;323.52;;;86.88;;
86110;SDS011;76766;52.874;11.218;2024-02-26T09:06:01;367.35;;;103.35;;
86110;SDS011;76766;52.874;11.218;2024-02-26T09:08:27;303.42;;;81.53;;
86110;SDS011;76766;52.874;11.218;2024-02-26T09:10:53;385.02;;;111.82;;
86110;SDS011;76766;52.874;11.218;2024-02-26T09:13:19;290.90;;;74.20;;
86110;SDS011;76766;52.874;11.218;2024-02-26T09:15:45;314.80;;;89.03;;
86110;SDS011;76766;52.874;11.218;2024-02-26T09:18:11;314.50;;;82.28;;
86110;SDS011;76766;52.874;11.218;2024-02-26T09:20:37;277.98;;;80.05;;
86110;SDS011;76766;52.874;11.218;2024-02-26T09:23:04;281.38;;;81.20;;
86110;SDS011;76766;52.874;11.218;2024-02-26T09:25:29;290.67;;;83.70;;
86110;SDS011;76766;52.874;11.218;2024-02-26T09:27:55;252.15;;;70.75;;
86110;SDS011;76766;52.874;11.218;2024-02-26T09:30:21;179.15;;;53.35;;
86110;SDS011;76766;52.874;11.218;2024-02-26T09:32:47;163.15;;;47.20;;
86110;SDS011;76766;52.874;11.218;2024-02-26T09:35:13;120.57;;;38.65;;
86110;SDS011;76766;52.874;11.218;2024-02-26T09:37:39;114.07;;;33.95;;
86110;SDS011;76766;52.874;11.218;2024-02-26T09:40:06;97.25;;;28.40;;
86110;SDS011;76766;52.874;11.218;2024-02-26T09:42:32;112.43;;;32.58;;
86110;SDS011;76766;52.874;11.218;2024-02-26T09:45:00;102.57;;;30.83;;
86110;SDS011;76766;52.874;11.218;2024-02-26T09:47:30;118.47;;;34.17;;
86110;SDS011;76766;52.874;11.218;2024-02-26T09:49:57;120.43;;;34.70;;
86110;SDS011;76766;52.874;11.218;2024-02-26T09:52:25;122.50;;;36.20;;
86110;SDS011;76766;52.874;11.218;2024-02-26T09:54:55;111.32;;;34.35;;
86110;SDS011;76766;52.874;11.218;2024-02-26T09:57:21;108.78;;;35.70;;
86110;SDS011;76766;52.874;11.218;2024-02-26T09:59:50;114.03;;;35.35;;
86110;SDS011;76766;52.874;11.218;2024-02-26T10:02:19;106.78;;;34.17;;
86110;SDS011;76766;52.874;11.218;2024-02-26T10:04:47;102.53;;;32.85;;
86110;SDS011;76766;52.874;11.218;2024-02-26T10:07:16;97.80;;;33.17;;
86110;SDS011;76766;52.874;11.218;2024-02-26T10:09:42;109.32;;;31.92;;
86110;SDS011;76766;52.874;11.218;2024-02-26T10:12:10;113.80;;;32.90;;
86110;SDS011;76766;52.874;11.218;2024-02-26T10:14:37;92.85;;;31.13;;
86110;SDS011;76766;52.874;11.218;2024-02-26T10:17:04;97.15;;;33.42;;
86110;SDS011;76766;52.874;11.218;2024-02-26T10:19:34;92.65;;;28.13;;
86110;SDS011;76766;52.874;11.218;2024-02-26T10:22:00;88.95;;;28.00;;
86110;SDS011;76766;52.874;11.218;2024-02-26T10:24:29;110.68;;;35.83;;
86110;SDS011;76766;52.874;11.218;2024-02-26T10:26:55;102.85;;;34.35;;
86110;SDS011;76766;52.874;11.218;2024-02-26T10:29:23;98.75;;;31.23;;
86110;SDS011;76766;52.874;11.218;2024-02-26T10:31:52;128.95;;;42.25;;
86110;SDS011;76766;52.874;11.218;2024-02-26T10:34:19;116.65;;;41.90;;
86110;SDS011;76766;52.874;11.218;2024-02-26T10:36:45;115.50;;;37.80;;
86110;SDS011;76766;52.874;11.218;2024-02-26T10:39:12;66.07;;;22.90;;
86110;SDS011;76766;52.874;11.218;2024-02-26T10:41:42;64.95;;;22.10;;
86110;SDS011;76766;52.874;11.218;2024-02-26T10:44:10;66.22;;;22.65;;
86110;SDS011;76766;52.874;11.218;2024-02-26T10:46:37;61.58;;;20.95;;
86110;SDS011;76766;52.874;11.218;2024-02-26T10:49:05;71.43;;;22.83;;
86110;SDS011;76766;52.874;11.218;2024-02-26T10:51:34;55.28;;;19.60;;
86110;SDS011;76766;52.874;11.218;2024-02-26T10:54:02;58.38;;;20.00;;
86110;SDS011;76766;52.874;11.218;2024-02-26T10:58:59;51.85;;;19.00;;
86110;SDS011;76766;52.874;11.218;2024-02-26T11:01:26;51.25;;;18.25;;
86110;SDS011;76766;52.874;11.218;2024-02-26T11:03:55;50.33;;;18.23;;
86110;SDS011;76766;52.874;11.218;2024-02-26T11:06:21;55.28;;;16.85;;
86110;SDS011;76766;52.874;11.218;2024-02-26T11:08:48;51.20;;;17.02;;
86110;SDS011;76766;52.874;11.218;2024-02-26T11:11:16;46.75;;;16.65;;
86110;SDS011;76766;52.874;11.218;2024-02-26T11:13:46;46.90;;;16.17;;
86110;SDS011;76766;52.874;11.218;2024-02-26T11:16:25;41.47;;;16.52;;
86110;SDS011;76766;52.874;11.218;2024-02-26T11:18:53;45.85;;;16.48;;
86110;SDS011;76766;52.874;11.218;2024-02-26T11:21:21;42.80;;;16.05;;
86110;SDS011;76766;52.874;11.218;2024-02-26T11:24:05;43.22;;;15.73;;
86110;SDS011;76766;52.874;11.218;2024-02-26T11:26:33;44.53;;;16.23;;
86110;SDS011;76766;52.874;11.218;2024-02-26T11:29:03;39.35;;;15.45;;
86110;SDS011;76766;52.874;11.218;2024-02-26T11:31:31;42.13;;;15.82;;
86110;SDS011;76766;52.874;11.218;2024-02-26T11:33:57;39.05;;;15.23;;
86110;SDS011;76766;52.874;11.218;2024-02-26T11:36:24;40.08;;;14.93;;
86110;SDS011;76766;52.874;11.218;2024-02-26T11:38:50;39.97;;;15.38;;
86110;SDS011;76766;52.874;11.218;2024-02-26T11:41:17;36.40;;;13.15;;
86110;SDS011;76766;52.874;11.218;2024-02-26T11:43:51;36.33;;;14.73;;
86110;SDS011;76766;52.874;11.218;2024-02-26T11:49:00;86.38;;;35.80;;
86110;SDS011;76766;52.874;11.218;2024-02-26T11:51:55;136.80;;;51.95;;
86110;SDS011;76766;52.874;11.218;2024-02-26T11:59:53;133.30;;;59.83;;
86110;SDS011;76766;52.874;11.218;2024-02-26T12:05:10;175.00;;;54.45;;
86110;SDS011;76766;52.874;11.218;2024-02-26T12:07:45;119.30;;;38.05;;
86110;SDS011;76766;52.874;11.218;2024-02-26T12:13:05;110.18;;;36.83;;
86110;SDS011;76766;52.874;11.218;2024-02-26T12:15:33;137.98;;;53.75;;
86110;SDS011;76766;52.874;11.218;2024-02-26T12:18:03;148.07;;;59.38;;
86110;SDS011;76766;52.874;11.218;2024-02-26T12:20:31;118.57;;;38.95;;
86110;SDS011;76766;52.874;11.218;2024-02-26T12:22:57;78.90;;;26.58;;
86110;SDS011;76766;52.874;11.218;2024-02-26T12:25:24;110.00;;;35.55;;
86110;SDS011;76766;52.874;11.218;2024-02-26T12:27:52;74.07;;;23.17;;
86110;SDS011;76766;52.874;11.218;2024-02-26T12:30:19;54.30;;;20.10;;
86110;SDS011;76766;52.874;11.218;2024-02-26T12:32:46;64.85;;;22.67;;
86110;SDS011;76766;52.874;11.218;2024-02-26T12:35:13;46.08;;;17.90;;
86110;SDS011;76766;52.874;11.218;2024-02-26T12:37:40;53.25;;;19.75;;
86110;SDS011;76766;52.874;11.218;2024-02-26T12:40:08;114.85;;;37.63;;
86110;SDS011;76766;52.874;11.218;2024-02-26T12:42:34;58.65;;;21.38;;
86110;SDS011;76766;52.874;11.218;2024-02-26T12:45:08;73.43;;;24.67;;
86110;SDS011;76766;52.874;11.218;2024-02-26T12:47:38;97.90;;;33.60;;
86110;SDS011;76766;52.874;11.218;2024-02-26T12:50:05;85.05;;;27.60;;
86110;SDS011;76766;52.874;11.218;2024-02-26T12:52:32;50.10;;;17.20;;
86110;SDS011;76766;52.874;11.218;2024-02-26T12:54:59;86.50;;;31.02;;
86110;SDS011;76766;52.874;11.218;2024-02-26T12:57:27;77.03;;;27.65;;
86110;SDS011;76766;52.874;11.218;2024-02-26T12:59:55;63.17;;;24.00;;
86110;SDS011;76766;52.874;11.218;2024-02-26T13:02:22;164.43;;;66.55;;
86110;SDS011;76766;52.874;11.218;2024-02-26T13:04:48;94.38;;;33.13;;
86110;SDS011;76766;52.874;11.218;2024-02-26T13:07:14;107.63;;;39.90;;
86110;SDS011;76766;52.874;11.218;2024-02-26T13:09:41;94.68;;;31.33;;
86110;SDS011;76766;52.874;11.218;2024-02-26T13:12:07;47.90;;;17.45;;
86110;SDS011;76766;52.874;11.218;2024-02-26T13:14:33;41.65;;;14.93;;
86110;SDS011;76766;52.874;11.218;2024-02-26T13:17:00;39.92;;;14.05;;
86110;SDS011;76766;52.874;11.218;2024-02-26T13:19:26;36.25;;;13.48;;
86110;SDS011;76766;52.874;11.218;2024-02-26T13:21:55;31.80;;;13.15;;
86110;SDS011;76766;52.874;11.218;2024-02-26T13:24:21;26.70;;;11.65;;
86110;SDS011;76766;52.874;11.218;2024-02-26T13:26:54;28.63;;;12.85;;
86110;SDS011;76766;52.874;11.218;2024-02-26T13:29:20;25.15;;;11.10;;
86110;SDS011;76766;52.874;11.218;2024-02-26T13:31:46;21.95;;;10.15;;
86110;SDS011;76766;52.874;11.218;2024-02-26T13:34:22;120.00;;;52.10;;
86110;SDS011;76766;52.874;11.218;2024-02-26T13:36:50;34.85;;;13.63;;
86110;SDS011;76766;52.874;11.218;2024-02-26T13:39:23;29.60;;;12.48;;
86110;SDS011;76766;52.874;11.218;2024-02-26T13:41:50;25.70;;;11.40;;
86110;SDS011;76766;52.874;11.218;2024-02-26T13:44:17;25.30;;;10.35;;
86110;SDS011;76766;52.874;11.218;2024-02-26T13:46:43;27.30;;;11.10;;
86110;SDS011;76766;52.874;11.218;2024-02-26T13:49:09;29.15;;;11.27;;
86110;SDS011;76766;52.874;11.218;2024-02-26T13:51:37;64.28;;;30.58;;
86110;SDS011;76766;52.874;11.218;2024-02-26T13:54:04;138.25;;;63.92;;
86110;SDS011;76766;52.874;11.218;2024-02-26T13:56:30;70.10;;;24.00;;
86110;SDS011;76766;52.874;11.218;2024-02-26T13:58:57;29.30;;;11.15;;
86110;SDS011;76766;52.874;11.218;2024-02-26T14:01:24;23.40;;;8.93;;
86110;SDS011;76766;52.874;11.218;2024-02-26T14:03:50;23.92;;;10.88;;
86110;SDS011;76766;52.874;11.218;2024-02-26T14:06:16;47.13;;;23.38;;
86110;SDS011;76766;52.874;11.218;2024-02-26T14:08:42;86.88;;;37.33;;
86110;SDS011;76766;52.874;11.218;2024-02-26T14:11:09;23.60;;;10.35;;
86110;SDS011;76766;52.874;11.218;2024-02-26T14:13:35;32.88;;;13.82;;
86110;SDS011;76766;52.874;11.218;2024-02-26T14:16:01;106.88;;;34.58;;
86110;SDS011;76766;52.874;11.218;2024-02-26T14:18:27;148.55;;;41.50;;
86110;SDS011;76766;52.874;11.218;2024-02-26T14:20:53;126.63;;;31.40;;
86110;SDS011;76766;52.874;11.218;2024-02-26T14:23:19;103.25;;;23.85;;
86110;SDS011;76766;52.874;11.218;2024-02-26T14:25:45;122.05;;;28.33;;
86110;SDS011;76766;52.874;11.218;2024-02-26T14:28:11;249.60;;;73.05;;
86110;SDS011;76766;52.874;11.218;2024-02-26T14:30:37;193.45;;;39.47;;
86110;SDS011;76766;52.874;11.218;2024-02-26T14:33:03;205.82;;;49.15;;
86110;SDS011;76766;52.874;11.218;2024-02-26T14:35:29;171.13;;;38.40;;